Time;durP1;ratioP1;P1;durP2;ratioP2;P2;SDS_P1;SDS_P2;PMS_P1;PMS_P2;Temp;Humidity;BMP_temperature;BMP_pressure;BME280_temperature;BME280_humidity;BME280_pressure;Samples;Min_cycle;Max_cycle;Signal;HPM_P1;HPM_P2
2021/03/01 00:00:44;;;;;;;2.35;2.12;;;;;;;12.11;64.64;100369.72;1725384;82;21187;-67
2021/03/01 00:03:12;;;;;;;2.22;1.92;;;;;;;12.07;64.68;100366.19;1722130;82;21450;-68
2021/03/01 00:05:40;;;;;;;2.40;1.90;;;;;;;12.06;64.75;100371.20;1730993;82;21593;-68
2021/03/01 00:08:09;;;;;;;2.15;1.95;;;;;;;12.05;64.77;100376.17;1721117;82;21187;-66
2021/03/01 00:10:36;;;;;;;2.33;2.08;;;;;;;12.14;64.59;100374.70;1723844;82;21195;-67
2021/03/01 00:13:04;;;;;;;2.98;1.98;;;;;;;12.15;64.52;100376.89;1724583;82;21182;-67
2021/03/01 00:15:32;;;;;;;2.08;1.70;;;;;;;12.11;64.55;100379.04;1723389;82;21382;-67
2021/03/01 00:17:59;;;;;;;2.33;2.10;;;;;;;12.09;64.62;100380.17;1724395;82;21212;-67
2021/03/01 00:20:27;;;;;;;2.15;1.92;;;;;;;12.06;64.69;100381.85;1723107;82;21167;-67
2021/03/01 00:22:54;;;;;;;2.30;1.92;;;;;;;12.03;64.71;100376.84;1723224;82;21439;-67
2021/03/01 00:25:23;;;;;;;2.27;1.95;;;;;;;12.00;64.62;100369.51;1727009;82;21120;-67
2021/03/01 00:27:50;;;;;;;2.92;2.10;;;;;;;12.16;64.44;100379.36;1727150;82;21371;-67
2021/03/01 00:30:19;;;;;;;2.58;1.90;;;;;;;12.14;64.46;100379.20;1732406;82;21196;-66
2021/03/01 00:32:46;;;;;;;2.33;1.90;;;;;;;12.09;64.50;100378.84;1690883;83;21187;-68
2021/03/01 00:35:14;;;;;;;2.08;1.82;;;;;;;12.06;64.56;100383.18;1729489;82;21151;-65
2021/03/01 00:37:42;;;;;;;2.52;1.98;;;;;;;12.02;64.57;100391.98;1720087;82;21167;-64
2021/03/01 00:40:10;;;;;;;2.05;1.75;;;;;;;11.99;64.69;100393.16;1723280;82;21195;-67
2021/03/01 00:42:37;;;;;;;2.47;2.00;;;;;;;12.03;64.72;100394.14;1721341;82;21191;-66
2021/03/01 00:45:06;;;;;;;2.30;1.85;;;;;;;12.10;64.51;100399.99;1722868;82;21159;-67
2021/03/01 00:47:34;;;;;;;1.67;1.35;;;;;;;12.07;64.53;100392.82;1724497;82;21175;-66
2021/03/01 00:50:04;;;;;;;2.25;1.77;;;;;;;12.02;64.56;100390.66;1726528;82;21120;-65
2021/03/01 00:52:32;;;;;;;1.85;1.50;;;;;;;11.99;64.63;100396.30;1727951;82;21441;-66
2021/03/01 00:55:00;;;;;;;2.52;1.95;;;;;;;11.96;64.71;100405.45;1728197;82;21139;-66
2021/03/01 00:57:29;;;;;;;1.80;1.62;;;;;;;11.94;64.75;100411.94;1724387;82;21668;-66
2021/03/01 00:59:59;;;;;;;1.70;1.42;;;;;;;12.02;64.63;100419.13;1684563;83;21207;-66
2021/03/01 01:02:27;;;;;;;2.20;1.85;;;;;;;12.05;64.57;100440.09;1732550;82;21592;-65
2021/03/01 01:05:10;;;;;;;1.92;1.65;;;;;;;12.05;64.60;100446.74;1756511;79;28249;-65
2021/03/01 01:07:37;;;;;;;2.05;1.67;;;;;;;11.98;64.68;100454.55;1734014;80;21186;-66
2021/03/01 01:10:07;;;;;;;2.65;1.70;;;;;;;11.94;64.74;100460.69;1753462;81;21377;-66
2021/03/01 01:12:35;;;;;;;1.87;1.50;;;;;;;11.92;64.77;100468.00;1735210;80;21187;-66
2021/03/01 01:15:07;;;;;;;2.00;1.50;;;;;;;11.97;64.75;100478.16;1760007;80;21201;-66
2021/03/01 01:20:09;;;;;;;2.27;2.05;;;;;;;12.06;64.53;100473.73;1860242;76;29573;-68
2021/03/01 01:22:37;;;;;;;1.92;1.52;;;;;;;11.92;64.71;100483.98;1845390;77;21171;-67
2021/03/01 01:25:07;;;;;;;1.52;1.42;;;;;;;11.89;64.76;100492.27;1838345;75;21377;-66
2021/03/01 01:27:35;;;;;;;1.90;1.62;;;;;;;11.88;64.80;100504.38;1836616;75;21613;-67
2021/03/01 01:30:14;;;;;;;2.45;2.00;;;;;;;11.85;64.87;100506.04;1838273;75;21122;-67
2021/03/01 01:32:41;;;;;;;2.30;1.55;;;;;;;11.92;64.80;100515.94;1839307;75;21596;-66
2021/03/01 01:35:11;;;;;;;2.35;1.90;;;;;;;12.00;64.55;100508.48;1838581;75;21181;-67
2021/03/01 01:37:39;;;;;;;1.52;1.42;;;;;;;11.97;64.57;100516.77;1832629;75;21416;-66
2021/03/01 01:40:09;;;;;;;1.60;1.40;;;;;;;11.92;64.65;100515.94;1786785;79;21066;-69
2021/03/01 01:42:38;;;;;;;2.20;1.67;;;;;;;11.90;64.69;100513.92;1783954;78;21110;-67
2021/03/01 01:45:10;;;;;;;2.08;1.67;;;;;;;11.86;64.76;100517.87;1793480;78;21165;-67
2021/03/01 01:47:39;;;;;;;1.82;1.52;;;;;;;11.83;64.81;100526.16;1816671;77;21086;-66
2021/03/01 01:50:08;;;;;;;1.50;1.40;;;;;;;11.92;64.71;100525.25;1780473;79;21385;-67
2021/03/01 01:52:36;;;;;;;1.62;1.40;;;;;;;11.94;64.59;100522.44;1802535;77;21136;-67
2021/03/01 01:55:05;;;;;;;2.12;1.65;;;;;;;11.91;64.67;100527.56;1809840;77;21120;-65
2021/03/01 01:57:34;;;;;;;1.50;1.40;;;;;;;11.89;64.72;100529.55;1791010;79;21210;-65
2021/03/01 02:00:07;;;;;;;1.80;1.60;;;;;;;11.85;64.73;100522.84;1792432;79;21186;-67
2021/03/01 02:02:35;;;;;;;1.85;1.70;;;;;;;11.82;64.79;100516.52;1793017;78;21385;-67
2021/03/01 02:05:06;;;;;;;1.95;1.60;;;;;;;11.84;64.80;100523.84;1802968;77;22153;-66
2021/03/01 02:07:45;;;;;;;1.70;1.60;;;;;;;11.93;64.66;100522.91;1809516;77;21171;-65
2021/03/01 02:10:17;;;;;;;1.87;1.62;;;;;;;11.92;64.59;100516.44;1803623;77;21713;-66
2021/03/01 02:13:09;;;;;;;1.42;1.27;;;;;;;11.88;64.69;100517.21;1778099;77;21107;-67
2021/03/01 02:15:57;;;;;;;1.72;1.42;;;;;;;11.84;64.74;100526.52;1794497;78;21322;-66
2021/03/01 02:18:24;;;;;;;1.47;1.25;;;;;;;11.80;64.83;100523.32;1799882;78;21125;-67
2021/03/01 02:20:52;;;;;;;1.27;1.17;;;;;;;11.76;64.92;100524.63;1799259;78;21118;-66
2021/03/01 02:23:19;;;;;;;1.50;1.40;;;;;;;11.83;64.85;100530.66;1799285;77;21141;-66
2021/03/01 02:25:57;;;;;;;1.72;1.52;;;;;;;11.87;64.71;100528.02;1795158;77;22015;-65
2021/03/01 02:28:28;;;;;;;1.72;1.60;;;;;;;11.84;64.77;100530.50;1804542;78;21364;-66
2021/03/01 02:30:58;;;;;;;2.12;1.62;;;;;;;11.79;64.85;100542.94;1806530;77;21174;-66
2021/03/01 02:33:30;;;;;;;1.98;1.82;;;;;;;11.77;64.90;100550.75;1803024;78;21130;-67
2021/03/01 02:36:07;;;;;;;1.65;1.42;;;;;;;11.75;64.97;100556.72;1770685;78;21126;-66
2021/03/01 02:38:35;;;;;;;1.55;1.45;;;;;;;11.77;64.94;100562.22;1802919;77;21636;-66
2021/03/01 02:41:02;;;;;;;1.92;1.52;;;;;;;11.87;64.74;100572.77;1804763;77;21423;-66
2021/03/01 02:43:30;;;;;;;1.65;1.55;;;;;;;11.85;64.75;100572.09;1804407;77;21192;-66
2021/03/01 02:45:59;;;;;;;2.30;1.90;;;;;;;11.82;64.81;100581.73;1746721;78;21176;-67
2021/03/01 02:48:28;;;;;;;1.72;1.50;;;;;;;11.78;64.83;100576.36;1790983;78;21134;-65
2021/03/01 02:50:55;;;;;;;1.65;1.55;;;;;;;11.76;64.92;100585.86;1793980;78;21126;-65
2021/03/01 02:53:23;;;;;;;1.67;1.45;;;;;;;11.74;64.99;100588.31;1808282;78;22327;-65
2021/03/01 02:55:51;;;;;;;1.72;1.62;;;;;;;11.79;64.92;100592.69;1799189;77;21150;-65
2021/03/01 02:58:20;;;;;;;1.62;1.45;;;;;;;11.86;64.73;100592.41;1799805;78;21178;-64
2021/03/01 03:00:47;;;;;;;1.80;1.60;;;;;;;11.84;64.74;100598.39;1792027;78;21169;-66
2021/03/01 03:03:15;;;;;;;2.25;1.82;;;;;;;11.80;64.78;100595.67;1798406;77;21592;-66
2021/03/01 03:05:44;;;;;;;2.05;1.70;;;;;;;11.78;64.86;100604.31;1795391;78;21391;-64
2021/03/01 03:08:12;;;;;;;1.95;1.60;;;;;;;11.75;64.91;100614.78;1792061;78;21133;-64
2021/03/01 03:10:41;;;;;;;1.90;1.70;;;;;;;11.75;64.93;100619.28;1801543;78;21217;-65
2021/03/01 03:13:09;;;;;;;1.60;1.50;;;;;;;11.85;64.79;100629.33;1798588;78;21173;-64
2021/03/01 03:15:39;;;;;;;1.70;1.50;;;;;;;11.86;64.67;100631.49;1803832;78;21114;-65
2021/03/01 03:18:11;;;;;;;1.70;1.60;;;;;;;11.81;64.75;100627.47;1767863;79;21249;-64
2021/03/01 03:20:39;;;;;;;2.02;1.42;;;;;;;11.78;64.82;100633.59;1785702;78;21147;-66
2021/03/01 03:23:08;;;;;;;2.42;1.87;;;;;;;11.76;64.83;100640.90;1786208;78;21139;-66
2021/03/01 03:25:36;;;;;;;1.90;1.70;;;;;;;11.73;64.91;100639.39;1821478;76;21192;-67
2021/03/01 03:28:05;;;;;;;1.80;1.42;;;;;;;11.78;64.82;100638.45;1822044;76;21561;-67
2021/03/01 03:30:33;;;;;;;1.57;1.37;;;;;;;11.89;64.61;100646.70;1824053;76;21193;-66
2021/03/01 03:33:01;;;;;;;1.90;1.60;;;;;;;11.87;64.60;100647.31;1817329;76;21561;-66
2021/03/01 03:35:29;;;;;;;1.70;1.50;;;;;;;11.83;64.67;100642.47;1828626;76;21128;-66
2021/03/01 03:38:17;;;;;;;2.15;1.65;;;;;;;11.79;64.73;100640.60;1821942;76;21288;-67
2021/03/01 03:40:50;;;;;;;2.58;1.70;;;;;;;11.76;64.75;100648.41;1822552;76;21168;-67
2021/03/01 03:43:18;;;;;;;1.40;1.30;;;;;;;11.73;64.83;100646.55;1805583;76;21668;-65
2021/03/01 03:45:45;;;;;;;2.10;1.77;;;;;;;11.79;64.78;100639.27;1825855;77;21149;-65
2021/03/01 03:48:13;;;;;;;1.80;1.60;;;;;;;11.82;64.64;100646.97;1773526;79;21187;-66
2021/03/01 03:50:42;;;;;;;1.70;1.60;;;;;;;11.79;64.70;100646.75;1762530;78;21198;-65
2021/03/01 03:53:13;;;;;;;2.42;1.80;;;;;;;11.77;64.72;100650.58;1762479;78;21160;-66
2021/03/01 03:55:41;;;;;;;1.72;1.62;;;;;;;11.74;64.79;100655.72;1762262;78;21372;-66
2021/03/01 03:58:12;;;;;;;1.60;1.50;;;;;;;11.71;64.82;100660.51;1761471;78;21232;-66
2021/03/01 04:00:39;;;;;;;2.10;1.70;;;;;;;11.72;64.88;100663.50;1760806;78;21203;-68
2021/03/01 04:03:12;;;;;;;2.02;1.75;;;;;;;11.82;64.68;100660.28;1768280;78;21166;-67
2021/03/01 04:05:40;;;;;;;2.22;1.95;;;;;;;11.80;64.66;100665.75;1769074;78;21607;-66
2021/03/01 04:08:10;;;;;;;2.05;1.85;;;;;;;11.76;64.70;100663.53;1761221;78;21369;-66
2021/03/01 04:10:38;;;;;;;2.10;1.90;;;;;;;11.73;64.78;100668.67;1769708;78;21150;-66
2021/03/01 04:13:07;;;;;;;2.27;1.62;;;;;;;11.71;64.81;100667.16;1767288;79;21120;-66
2021/03/01 04:15:34;;;;;;;2.05;1.70;;;;;;;11.69;64.89;100671.80;1787185;79;21127;-67
2021/03/01 04:18:04;;;;;;;1.60;1.50;;;;;;;11.73;64.84;100672.66;1783653;78;21224;-66
2021/03/01 04:20:32;;;;;;;1.90;1.70;;;;;;;11.83;64.63;100671.75;1805271;78;21504;-67
2021/03/01 04:23:02;;;;;;;2.15;1.95;;;;;;;11.80;64.63;100679.53;1844148;76;21137;-67
2021/03/01 04:25:30;;;;;;;2.15;1.95;;;;;;;11.76;64.69;100683.49;1812475;77;21136;-67
2021/03/01 04:27:57;;;;;;;2.58;2.25;;;;;;;11.72;64.77;100689.61;1834226;76;21130;-68
2021/03/01 04:30:26;;;;;;;1.82;1.70;;;;;;;11.71;64.80;100690.61;1834177;76;21144;-68
2021/03/01 04:32:53;;;;;;;2.05;1.70;;;;;;;11.68;64.87;100688.25;1838058;76;21510;-67
2021/03/01 04:35:20;;;;;;;3.00;1.77;;;;;;;11.76;64.76;100692.81;1807853;77;22125;-66
2021/03/01 04:37:48;;;;;;;1.82;1.70;;;;;;;11.77;64.62;100686.01;1789719;77;21643;-66
2021/03/01 04:40:17;;;;;;;1.90;1.80;;;;;;;11.76;64.67;100690.15;1803100;77;21133;-68
2021/03/01 04:42:45;;;;;;;2.25;1.70;;;;;;;11.73;64.70;100690.47;1827512;76;21112;-67
2021/03/01 04:45:16;;;;;;;2.55;2.08;;;;;;;11.69;64.75;100693.92;1831554;76;21362;-67
2021/03/01 04:47:43;;;;;;;2.55;2.15;;;;;;;11.68;64.82;100698.06;1776331;79;21187;-67
2021/03/01 04:50:14;;;;;;;1.85;1.70;;;;;;;11.68;64.85;100698.89;1761480;79;21179;-66
2021/03/01 04:52:43;;;;;;;1.98;1.75;;;;;;;11.76;64.67;100705.65;1790421;79;21138;-65
2021/03/01 04:55:11;;;;;;;2.17;1.98;;;;;;;11.76;64.61;100713.63;1789242;78;21207;-67
2021/03/01 04:57:38;;;;;;;2.65;2.25;;;;;;;11.74;64.70;100720.08;1782461;79;21382;-65
2021/03/01 05:00:09;;;;;;;2.42;1.95;;;;;;;11.70;64.78;100728.86;1776839;79;21114;-66
2021/03/01 05:02:39;;;;;;;2.35;2.00;;;;;;;11.68;64.83;100734.00;1783054;80;21559;-65
2021/03/01 05:05:09;;;;;;;2.60;1.67;;;;;;;11.65;64.87;100740.47;1780975;79;21161;-65
2021/03/01 05:07:37;;;;;;;2.33;1.72;;;;;;;11.70;64.81;100750.66;1792078;77;21126;-67
2021/03/01 05:10:06;;;;;;;2.62;2.08;;;;;;;11.79;64.58;100755.91;1832040;76;21433;-67
2021/03/01 05:12:33;;;;;;;2.40;2.10;;;;;;;11.76;64.61;100754.90;1833147;76;21605;-69
2021/03/01 05:15:02;;;;;;;1.72;1.62;;;;;;;11.73;64.69;100759.18;1824949;76;21144;-69
2021/03/01 05:17:29;;;;;;;2.47;2.10;;;;;;;11.70;64.75;100763.96;1838747;76;21156;-65
2021/03/01 05:19:58;;;;;;;2.10;1.90;;;;;;;11.68;64.82;100776.08;1828301;76;21156;-66
2021/03/01 05:22:27;;;;;;;2.92;2.20;;;;;;;11.65;64.92;100775.07;1830002;76;21218;-67
2021/03/01 05:24:54;;;;;;;2.00;1.80;;;;;;;11.72;64.80;100773.46;1771525;79;21176;-67
2021/03/01 05:27:22;;;;;;;2.52;1.95;;;;;;;11.76;64.66;100784.18;1786516;79;21146;-67
2021/03/01 05:29:49;;;;;;;2.30;2.10;;;;;;;11.74;64.71;100782.16;1781986;79;21122;-67
2021/03/01 05:32:16;;;;;;;1.87;1.77;;;;;;;11.70;64.76;100782.09;1792818;79;21112;-65
2021/03/01 05:34:44;;;;;;;2.45;1.87;;;;;;;11.69;64.81;100784.93;1783553;78;21183;-66
2021/03/01 05:37:12;;;;;;;2.87;2.00;;;;;;;11.66;64.83;100792.70;1770031;79;21148;-67
2021/03/01 05:39:39;;;;;;;2.27;2.08;;;;;;;11.66;64.89;100798.52;1782774;78;21159;-67
2021/03/01 05:42:06;;;;;;;2.30;1.92;;;;;;;11.75;64.71;100800.30;1782661;79;21162;-68
2021/03/01 05:44:34;;;;;;;2.52;2.20;;;;;;;11.75;64.67;100803.79;1786249;79;22325;-67
2021/03/01 05:47:01;;;;;;;2.33;2.05;;;;;;;11.72;64.70;100809.39;1784814;78;22057;-68
2021/03/01 05:49:31;;;;;;;2.42;2.22;;;;;;;11.71;64.78;100817.56;1772662;79;21118;-68
2021/03/01 05:51:58;;;;;;;2.85;2.27;;;;;;;11.68;64.82;100821.84;1804564;79;21567;-68
2021/03/01 05:54:27;;;;;;;2.55;2.35;;;;;;;11.67;64.89;100829.49;1824678;77;21148;-66
2021/03/01 05:56:55;;;;;;;2.80;2.50;;;;;;;11.71;64.82;100838.35;1824319;76;21699;-68
2021/03/01 05:59:23;;;;;;;2.42;2.22;;;;;;;11.81;64.61;100847.11;1773065;79;22249;-68
2021/03/01 06:01:51;;;;;;;2.45;2.10;;;;;;;11.78;64.62;100847.89;1785316;78;22004;-66
2021/03/01 06:04:18;;;;;;;2.52;2.15;;;;;;;11.74;64.70;100850.52;1779938;79;21222;-67
2021/03/01 06:06:46;;;;;;;2.08;1.87;;;;;;;11.71;64.80;100855.66;1774112;79;21173;-68
2021/03/01 06:09:13;;;;;;;2.40;2.10;;;;;;;11.69;64.82;100860.79;1799563;78;21182;-66
2021/03/01 06:11:41;;;;;;;2.55;2.05;;;;;;;11.66;64.89;100865.90;1770593;79;21204;-67
2021/03/01 06:14:08;;;;;;;2.62;2.12;;;;;;;11.74;64.79;100864.69;1780604;78;21458;-68
2021/03/01 06:16:36;;;;;;;2.62;2.20;;;;;;;11.78;64.71;100873.19;1780697;78;21104;-68
2021/03/01 06:19:04;;;;;;;2.80;2.15;;;;;;;11.75;64.70;100875.66;1790950;76;21664;-66
2021/03/01 06:21:32;;;;;;;2.55;2.35;;;;;;;11.72;64.77;100883.94;1837677;76;21175;-67
2021/03/01 06:24:00;;;;;;;2.30;2.10;;;;;;;11.70;64.81;100881.91;1846461;76;22114;-67
2021/03/01 06:26:32;;;;;;;2.37;1.98;;;;;;;11.69;64.90;100890.07;1827743;76;21119;-67
2021/03/01 06:29:07;;;;;;;2.67;2.20;;;;;;;11.69;64.92;100887.41;1811847;77;21168;-66
2021/03/01 06:31:48;;;;;;;2.42;2.12;;;;;;;11.78;64.72;100895.34;1836831;76;21079;-65
2021/03/01 06:34:30;;;;;;;2.20;2.00;;;;;;;11.77;64.69;100896.32;1843599;76;21131;-67
2021/03/01 06:37:13;;;;;;;2.65;2.10;;;;;;;11.74;64.77;100900.63;1852697;76;22117;-67
2021/03/01 06:39:48;;;;;;;2.42;2.22;;;;;;;11.70;64.84;100905.04;1851384;76;21123;-66
2021/03/01 06:45:03;;;;;;;2.85;2.20;;;;;;;11.69;65.02;100911.36;1846711;76;28379;-67
2021/03/01 06:47:51;;;;;;;2.08;1.87;;;;;;;11.69;64.95;100916.69;1821752;77;21134;-66
2021/03/01 06:50:30;;;;;;;2.40;2.20;;;;;;;11.68;64.97;100918.48;1833716;77;21370;-66
2021/03/01 06:52:54;;;;;;;2.62;2.42;;;;;;;11.65;65.03;100927.26;1817664;78;21164;-68
2021/03/01 06:55:22;;;;;;;2.30;2.10;;;;;;;11.62;65.11;100932.39;1811953;77;21136;-66
2021/03/01 06:57:49;;;;;;;2.30;2.10;;;;;;;11.65;65.13;100936.10;1827725;77;21146;-66
2021/03/01 07:00:23;;;;;;;2.70;2.30;;;;;;;11.75;64.91;100939.56;1840348;77;21095;-68
2021/03/01 07:02:51;;;;;;;2.30;2.10;;;;;;;11.76;64.87;100944.38;1829692;77;21536;-66
2021/03/01 07:05:20;;;;;;;2.52;2.20;;;;;;;11.74;64.92;100947.68;1823019;77;20984;-67
2021/03/01 07:07:48;;;;;;;2.58;2.37;;;;;;;11.71;64.97;100944.83;1825613;77;21631;-66
2021/03/01 07:10:15;;;;;;;3.25;2.55;;;;;;;11.71;65.02;100949.33;1825339;77;21178;-67
2021/03/01 07:12:49;;;;;;;2.65;2.42;;;;;;;11.69;65.04;100952.13;1840167;77;21159;-67
2021/03/01 07:15:16;;;;;;;2.45;2.10;;;;;;;11.72;65.06;100951.81;1827014;77;21355;-66
2021/03/01 07:17:45;;;;;;;2.60;2.33;;;;;;;11.81;64.85;100954.94;1825109;77;21154;-66
2021/03/01 07:20:14;;;;;;;2.47;2.27;;;;;;;11.80;64.87;100959.07;1822821;77;22094;-66
2021/03/01 07:22:43;;;;;;;2.52;2.33;;;;;;;11.77;64.95;100960.22;1824919;77;21647;-66
2021/03/01 07:25:13;;;;;;;2.67;2.47;;;;;;;11.75;64.98;100958.69;1830647;77;21131;-67
2021/03/01 07:27:42;;;;;;;2.37;2.17;;;;;;;11.74;65.04;100958.33;1827511;77;21432;-71
2021/03/01 07:30:12;;;;;;;3.12;2.65;;;;;;;11.75;65.09;100957.36;1825367;77;21194;-71
2021/03/01 07:32:40;;;;;;;2.70;2.45;;;;;;;11.87;65.00;100954.84;1832942;77;21107;-69
2021/03/01 07:35:09;;;;;;;2.52;2.30;;;;;;;11.87;64.99;100958.84;1829244;77;21295;-70
2021/03/01 07:37:37;;;;;;;2.72;2.42;;;;;;;11.85;65.04;100964.80;1822847;77;21111;-71
2021/03/01 07:40:07;;;;;;;2.77;2.35;;;;;;;11.83;65.08;100969.44;1822711;77;21363;-69
2021/03/01 07:42:38;;;;;;;2.85;2.15;;;;;;;11.82;65.11;100965.12;1841482;77;21159;-69
2021/03/01 07:45:07;;;;;;;2.62;2.42;;;;;;;11.80;65.22;100966.59;1831827;77;21264;-71
2021/03/01 07:47:34;;;;;;;2.55;2.30;;;;;;;11.88;65.15;100975.65;1839942;77;21626;-70
2021/03/01 07:50:04;;;;;;;2.45;2.25;;;;;;;11.95;64.99;100969.63;1830088;77;21166;-68
2021/03/01 07:52:33;;;;;;;2.75;2.40;;;;;;;11.93;65.01;100975.59;1822227;77;21434;-68
2021/03/01 07:55:09;;;;;;;2.50;2.17;;;;;;;11.91;65.08;100974.90;1814714;77;21177;-70
2021/03/01 07:57:38;;;;;;;3.10;2.80;;;;;;;11.89;65.15;100975.54;1842863;76;21143;-72
2021/03/01 08:00:28;;;;;;;3.22;2.20;;;;;;;11.87;65.23;100977.48;1823716;77;21104;-71
2021/03/01 08:02:55;;;;;;;2.72;2.17;;;;;;;11.94;65.22;100979.95;1823269;77;21146;-71
2021/03/01 08:05:29;;;;;;;4.35;2.77;;;;;;;12.03;65.01;100990.19;1824548;77;21359;-69
2021/03/01 08:07:58;;;;;;;2.67;2.42;;;;;;;12.02;65.05;100989.03;1825708;77;21576;-69
2021/03/01 08:10:37;;;;;;;2.87;2.58;;;;;;;11.99;65.10;100999.47;1833804;77;21551;-69
2021/03/01 08:13:08;;;;;;;2.77;2.30;;;;;;;11.96;65.12;100991.78;1823803;77;21075;-69
2021/03/01 08:15:44;;;;;;;2.47;2.08;;;;;;;11.94;65.21;101001.75;1822722;77;21076;-71
2021/03/01 08:18:13;;;;;;;2.85;2.37;;;;;;;11.97;65.17;101006.27;1826201;77;21240;-70
2021/03/01 08:20:44;;;;;;;2.70;2.50;;;;;;;12.08;64.96;101008.41;1822909;77;21210;-69
2021/03/01 08:23:14;;;;;;;3.50;3.20;;;;;;;12.06;64.97;101005.89;1820750;77;22052;-71
2021/03/01 08:25:51;;;;;;;2.72;2.52;;;;;;;12.04;65.04;101017.19;1836731;77;21196;-70
2021/03/01 08:28:32;;;;;;;3.08;2.40;;;;;;;12.02;65.14;101015.66;1824597;77;21598;-70
2021/03/01 08:31:12;;;;;;;2.65;2.37;;;;;;;11.99;65.22;101012.78;1824391;77;22170;-71
2021/03/01 08:33:40;;;;;;;2.92;2.65;;;;;;;11.99;65.26;101023.44;1823797;77;21123;-72
2021/03/01 08:36:17;;;;;;;2.87;2.58;;;;;;;12.09;65.11;101018.93;1819128;77;21144;-70
2021/03/01 08:38:49;;;;;;;2.85;2.55;;;;;;;12.10;65.12;101019.77;1823833;77;21115;-70
2021/03/01 08:41:34;;;;;;;3.10;2.80;;;;;;;12.08;65.14;101027.06;1822430;77;21111;-71
2021/03/01 08:44:03;;;;;;;4.22;3.10;;;;;;;12.05;65.21;101028.17;1826740;77;22411;-68
2021/03/01 08:46:30;;;;;;;3.30;2.72;;;;;;;12.04;65.30;101027.01;1820122;77;21624;-71
2021/03/01 08:48:59;;;;;;;3.10;2.62;;;;;;;12.03;65.36;101034.14;1818658;77;21143;-70
2021/03/01 08:51:27;;;;;;;3.17;2.62;;;;;;;12.14;65.20;101034.46;1822919;77;21129;-70
2021/03/01 08:53:54;;;;;;;4.47;3.22;;;;;;;12.14;65.12;101035.29;1825173;77;21164;-70
2021/03/01 08:56:26;;;;;;;3.08;2.77;;;;;;;12.13;65.21;101038.09;1824005;77;22323;-70
2021/03/01 08:58:54;;;;;;;2.98;2.70;;;;;;;12.11;65.30;101041.40;1824439;77;21151;-71
2021/03/01 09:01:22;;;;;;;2.87;2.58;;;;;;;12.10;65.42;101048.56;1839134;77;21108;-68
2021/03/01 09:03:49;;;;;;;2.83;2.62;;;;;;;12.10;65.50;101044.56;1833281;77;21111;-70
2021/03/01 09:06:21;;;;;;;4.12;2.87;;;;;;;12.20;65.39;101049.85;1822932;77;21139;-70
2021/03/01 09:08:55;;;;;;;2.77;2.58;;;;;;;12.25;65.34;101055.59;1826065;77;21873;-69
2021/03/01 09:11:25;;;;;;;3.35;3.05;;;;;;;12.23;65.39;101054.03;1827202;77;21543;-71
2021/03/01 09:14:03;;;;;;;3.72;2.90;;;;;;;12.21;65.50;101060.87;1834215;77;21190;-70
2021/03/01 09:16:33;;;;;;;3.05;2.75;;;;;;;12.17;65.52;101056.32;1835580;77;21166;-72
2021/03/01 09:19:07;;;;;;;3.80;3.40;;;;;;;12.20;65.57;101063.17;1831155;77;21160;-72
2021/03/01 09:21:40;;;;;;;3.40;3.08;;;;;;;12.33;65.41;101065.02;1826298;77;21345;-72
2021/03/01 09:24:10;;;;;;;2.95;2.62;;;;;;;12.37;65.37;101071.72;1832079;77;21147;-72
2021/03/01 09:26:39;;;;;;;3.30;3.00;;;;;;;12.36;65.39;101071.86;1841508;77;21127;-73
2021/03/01 09:29:12;;;;;;;2.92;2.55;;;;;;;12.35;65.47;101079.02;1829882;77;21139;-71
2021/03/01 09:31:54;;;;;;;3.08;2.70;;;;;;;12.34;65.50;101078.70;1833191;77;21318;-70
2021/03/01 09:34:27;;;;;;;3.45;2.62;;;;;;;12.35;65.57;101084.36;1834273;77;21251;-72
2021/03/01 09:36:57;;;;;;;3.20;2.90;;;;;;;12.45;65.41;101082.15;1835977;77;21128;-69
2021/03/01 09:39:25;;;;;;;3.15;2.85;;;;;;;12.46;65.33;101089.14;1836330;77;21131;-68
2021/03/01 09:41:54;;;;;;;3.83;3.25;;;;;;;12.44;65.34;101093.78;1829063;77;21611;-70
2021/03/01 09:44:25;;;;;;;3.67;3.37;;;;;;;12.42;65.37;101095.28;1828133;77;21177;-71
2021/03/01 09:46:55;;;;;;;3.00;2.70;;;;;;;12.43;65.40;101096.11;1830528;77;21431;-70
2021/03/01 09:49:23;;;;;;;3.08;2.77;;;;;;;12.43;65.44;101094.78;1832682;77;21210;-71
2021/03/01 09:51:50;;;;;;;3.00;2.67;;;;;;;12.55;65.27;101101.59;1830566;77;21179;-69
2021/03/01 09:54:18;;;;;;;3.58;3.27;;;;;;;12.59;65.21;101099.83;1827912;77;21135;-68
2021/03/01 09:56:52;;;;;;;3.55;3.25;;;;;;;12.58;65.25;101095.47;1818423;77;21162;-67
2021/03/01 09:59:40;;;;;;;;;;;;;;;12.58;65.26;101094.64;1834960;77;21380;-70
2021/03/01 10:02:20;;;;;;;3.10;2.77;;;;;;;12.57;65.36;101090.28;1828762;77;20256;-72
2021/03/01 10:04:49;;;;;;;3.05;2.75;;;;;;;12.47;65.55;101090.33;1856014;76;21139;-70
2021/03/01 10:07:24;;;;;;;3.33;2.65;;;;;;;12.55;65.49;101086.92;1849324;76;21161;-69
2021/03/01 10:09:54;;;;;;;3.37;3.05;;;;;;;12.66;65.25;101081.91;1822226;77;21202;-69
2021/03/01 10:12:22;;;;;;;3.30;3.00;;;;;;;12.65;65.25;101086.88;1826179;77;21628;-71
2021/03/01 10:14:59;;;;;;;4.22;3.30;;;;;;;12.64;65.30;101086.05;1826833;77;21159;-69
2021/03/01 10:17:33;;;;;;;3.33;3.02;;;;;;;12.63;65.33;101083.02;1811918;77;21950;-69
2021/03/01 10:20:09;;;;;;;2.60;2.40;;;;;;;12.63;65.37;101081.69;1818522;77;21119;-66
2021/03/01 10:23:02;;;;;;;3.33;2.67;;;;;;;12.69;65.34;101073.12;1816802;77;21605;-71
2021/03/01 10:25:39;;;;;;;3.45;3.15;;;;;;;12.79;65.10;101077.05;1819690;77;21423;-68
2021/03/01 10:28:27;;;;;;;3.20;2.90;;;;;;;12.76;65.14;101076.01;1811045;77;21156;-69
2021/03/01 10:31:06;;;;;;;3.27;2.72;;;;;;;12.73;65.21;101071.83;1818729;77;21176;-69
2021/03/01 10:34:11;;;;;;;3.27;2.80;;;;;;;12.71;65.22;101068.94;1829231;77;21367;-67
2021/03/01 10:36:47;;;;;;;;;;;;;;;12.69;65.29;101068.25;1829653;77;21187;-66
2021/03/01 10:39:19;;;;;;;3.37;2.90;;;;;;;12.76;65.18;101072.84;1847366;76;21186;-66
2021/03/01 10:41:49;;;;;;;3.40;3.10;;;;;;;12.71;65.25;101070.27;1829854;76;21172;-66
2021/03/01 10:44:16;;;;;;;3.33;3.02;;;;;;;12.69;65.32;101076.25;1822418;77;21149;-67
2021/03/01 10:46:48;;;;;;;3.35;3.05;;;;;;;12.68;65.34;101081.26;1820305;77;21612;-68
2021/03/01 10:49:28;;;;;;;3.40;3.10;;;;;;;12.66;65.35;101082.73;1816298;77;21159;-68
2021/03/01 10:51:58;;;;;;;3.35;3.02;;;;;;;12.65;65.39;101081.07;1813816;78;21425;-66
2021/03/01 10:54:27;;;;;;;3.37;3.08;;;;;;;12.74;65.22;101087.32;1806709;78;21136;-67
2021/03/01 10:56:54;;;;;;;3.65;3.25;;;;;;;12.77;65.08;101095.03;1817415;77;21131;-66
2021/03/01 10:59:22;;;;;;;2.92;2.70;;;;;;;12.75;65.07;101091.18;1817196;77;21147;-67
2021/03/01 11:01:49;;;;;;;3.02;2.70;;;;;;;12.73;65.07;101099.82;1816087;77;21584;-67
2021/03/01 11:04:18;;;;;;;3.58;3.27;;;;;;;12.71;65.08;101095.61;1834019;77;21134;-66
2021/03/01 11:06:47;;;;;;;3.33;3.02;;;;;;;12.69;65.12;101095.78;1851211;77;21094;-67
2021/03/01 11:09:14;;;;;;;3.72;2.90;;;;;;;12.72;65.09;101096.80;1807646;78;21218;-66
2021/03/01 11:11:42;;;;;;;4.40;2.90;;;;;;;12.82;64.87;101095.91;1823293;78;21154;-66
2021/03/01 11:14:11;;;;;;;2.90;2.70;;;;;;;12.79;64.83;101095.22;1814924;78;21125;-66
2021/03/01 11:16:40;;;;;;;3.20;2.90;;;;;;;12.78;64.89;101094.03;1810600;78;21329;-68
2021/03/01 11:19:09;;;;;;;3.58;3.27;;;;;;;12.76;64.94;101089.34;1808331;78;21203;-69
2021/03/01 11:21:37;;;;;;;3.35;3.05;;;;;;;12.73;64.96;101089.16;1805543;78;21647;-68
2021/03/01 11:24:06;;;;;;;3.42;2.85;;;;;;;12.76;64.97;101091.50;1809065;78;21228;-68
2021/03/01 11:26:33;;;;;;;3.20;2.90;;;;;;;12.87;64.80;101094.47;1805948;78;21163;-66
2021/03/01 11:29:01;;;;;;;4.10;3.25;;;;;;;12.88;64.73;101084.64;1814390;78;21199;-67
2021/03/01 11:31:32;;;;;;;3.42;3.12;;;;;;;12.86;64.77;101088.78;1811302;78;21222;-68
2021/03/01 11:34:01;;;;;;;3.70;2.90;;;;;;;12.84;64.80;101089.93;1805923;78;21171;-69
2021/03/01 11:36:30;;;;;;;3.45;3.05;;;;;;;12.83;64.85;101093.60;1808779;78;21141;-69
2021/03/01 11:38:58;;;;;;;3.52;3.10;;;;;;;12.81;64.92;101094.25;1806740;78;21084;-68
2021/03/01 11:41:26;;;;;;;3.40;3.10;;;;;;;12.87;64.91;101096.31;1810002;78;21434;-70
2021/03/01 11:43:54;;;;;;;3.47;3.15;;;;;;;12.94;64.73;101102.70;1807256;78;21616;-68
2021/03/01 11:46:21;;;;;;;3.35;2.85;;;;;;;12.92;64.70;101094.01;1818416;77;21624;-65